Pagrindinis puslapis
METAR-TAF:

METAR-TAF

Oro uostai :

Nankinas, Kinija

platuma: 32-00N, ilguma: 118-48E, Aukštis: 12 m

Dabartinis oras

Ataskaita buvo paskelbta 43 minutes, ne 17:00 UTC
Vėjas 4 kt iš Šiaurės Rytų, svyruoja nuo Šiaurės ir Rytų
Temperatūra 10°C
Drėgmė 100%
Slėgis 1020 hPa
Matomumas: 5000 m
Išsisklaidę debesys ne aukštis 800 ft
Apsiniaukę ne aukštis 3300 ft
rūkana

METAR: ZSNJ 311700Z 05002MPS 010V080 5000 BR SCT008 OVC033 10/10 Q1020 NOSIG

Laikas: 01:43 (17:43 UTC)

Prognozė

Ataskaita buvo paskelbta 1 valandą ir 42 minutes, ne 16:01 UTC
Prognozė galioja nuo 31 metu 18 UTC su 01 metu 18 UTC
Vėjas 6 kt iš Šiaurės Rytų
Matomumas: 3000 m
Su prošvaistėmis ne aukštis 800 ft
Apsiniaukę ne aukštis 3300 ft
rūkana
Tapsmas
nuo 31 metu 21 UTC su 31 metu 22 UTC
Su prošvaistėmis ne aukštis 1500 ft
Apsiniaukę ne aukštis 3300 ft

TAF: ZSNJ 311601Z 3118/0118 05003MPS 3000 BR BKN008 OVC033 TX16/0106Z TN09/3122Z BECMG 3121/3122 BKN015 OVC033

Orai ataskaitas ir orų prognozės (METAR, TAF).

turimą stotys yra geltonos ir raudonos taškus žemėlapyje.

Perkelti pele per norėdami pamatyti stoties vardą.

Tada spustelėkite, norėdami matyti oro stebėjimo ir prognozės.

Norėdami pakeisti žemėlapį: spustelėkite ant žalios mygtukų su juodo kryžiaus žemyn,; žalią mygtuką su brūkšneliu, jei norite nutolinti; arba žalių rodyklių gretimoms žemėlapius.


METAR-TAF: